Time,TemperatureF,DewpointF,PressureIn,WindDirection,WindDirectionDegrees,WindSpeedMPH,WindSpeedGustMPH,Humidity,HourlyPrecipIn,Conditions,Clouds,dailyrainin,SoftwareType,DateUTC
2013-03-30 00:01:00,50.2,44.3,30.29,NNW,341,0.0,0.0,80,0.00,,,0.00,WeatherCatV1.10B1784,2013-03-30 07:01:00,
2013-03-30 00:06:00,49.8,43.9,30.29,NNW,343,0.0,0.0,80,0.00,,,0.00,WeatherCatV1.10B1784,2013-03-30 07:06:00,
2013-03-30 00:11:00,49.4,43.8,30.29,NNW,341,0.0,0.0,81,0.00,,,0.00,WeatherCatV1.10B1784,2013-03-30 07:11:00,
2013-03-30 00:16:00,49.6,44.3,30.29,NNW,328,0.0,0.0,82,0.00,,,0.00,WeatherCatV1.10B1784,2013-03-30 07:16:00,
2013-03-30 00:21:00,49.6,44.0,30.29,NNE,22,0.0,0.0,81,0.00,,,0.00,WeatherCatV1.10B1784,2013-03-30 07:21:00,
2013-03-30 00:26:00,49.3,44.0,30.29,NNE,22,0.0,0.0,82,0.00,,,0.00,WeatherCatV1.10B1784,2013-03-30 07:26:00,
2013-03-30 00:31:00,49.1,44.2,30.29,NNE,22,0.0,0.0,83,0.00,,,0.00,WeatherCatV1.10B1784,2013-03-30 07:31:00,
2013-03-30 00:36:00,49.3,44.4,30.30,NNE,32,1.0,1.0,83,0.00,,,0.00,WeatherCatV1.10B1784,2013-03-30 07:36:00,
2013-03-30 00:41:00,49.8,44.5,30.30,North,5,1.0,3.0,82,0.00,,,0.00,WeatherCatV1.10B1784,2013-03-30 07:41:00,
2013-03-30 00:46:00,49.8,44.5,30.30,NNW,333,1.0,1.0,82,0.00,,,0.00,WeatherCatV1.10B1784,2013-03-30 07:46:00,
2013-03-30 00:51:00,49.6,44.3,30.30,NNW,331,0.0,0.0,82,0.00,,,0.00,WeatherCatV1.10B1784,2013-03-30 07:51:00,
2013-03-30 00:56:00,49.2,43.9,30.30,SSE,153,0.0,1.0,82,0.00,,,0.00,WeatherCatV1.10B1784,2013-03-30 07:56:00,
2013-03-30 01:01:00,48.6,44.0,30.30,SSE,152,0.0,1.0,84,0.00,,,0.00,WeatherCatV1.10B1784,2013-03-30 08:01:00,
2013-03-30 01:06:00,48.1,43.5,30.30,ESE,117,1.0,1.0,84,0.00,,,0.00,WeatherCatV1.10B1784,2013-03-30 08:06:00,
2013-03-30 01:11:00,48.0,43.4,30.30,East,88,0.0,1.0,84,0.00,,,0.00,WeatherCatV1.10B1784,2013-03-30 08:11:00,
2013-03-30 01:16:00,47.7,43.4,30.30,SE,144,0.0,1.0,85,0.00,,,0.00,WeatherCatV1.10B1784,2013-03-30 08:16:00,
2013-03-30 01:21:00,47.6,43.6,30.30,SE,144,0.0,0.0,86,0.00,,,0.00,WeatherCatV1.10B1784,2013-03-30 08:21:00,
2013-03-30 01:26:00,47.6,43.6,30.30,SE,142,1.0,1.0,86,0.00,,,0.00,WeatherCatV1.10B1784,2013-03-30 08:26:00,
2013-03-30 01:31:00,47.5,43.5,30.30,SE,143,0.0,0.0,86,0.00,,,0.00,WeatherCatV1.10B1784,2013-03-30 08:31:00,
2013-03-30 01:36:00,46.9,42.9,30.30,SE,144,0.0,0.0,86,0.00,,,0.00,WeatherCatV1.10B1784,2013-03-30 08:36:00,
2013-03-30 01:41:00,46.6,43.2,30.30,SE,144,0.0,1.0,88,0.00,,,0.00,WeatherCatV1.10B1784,2013-03-30 08:41:00,
2013-03-30 01:46:00,46.5,43.1,30.30,SE,142,0.0,0.0,88,0.00,,,0.00,WeatherCatV1.10B1784,2013-03-30 08:46:00,
2013-03-30 01:51:00,46.3,42.9,30.30,SE,142,0.0,0.0,88,0.00,,,0.00,WeatherCatV1.10B1784,2013-03-30 08:51:00,
2013-03-30 01:56:00,46.4,43.3,30.30,ESE,105,1.0,1.0,89,0.00,,,0.00,WeatherCatV1.10B1784,2013-03-30 08:56:00,
2013-03-30 02:01:00,46.3,42.9,30.30,East,98,1.0,1.0,88,0.00,,,0.00,WeatherCatV1.10B1784,2013-03-30 09:01:00,
2013-03-30 02:06:00,45.8,42.5,30.30,East,99,1.0,1.0,88,0.00,,,0.00,WeatherCatV1.10B1784,2013-03-30 09:06:00,
2013-03-30 02:11:00,45.2,42.2,30.30,East,98,0.0,1.0,89,0.00,,,0.00,WeatherCatV1.10B1784,2013-03-30 09:11:00,
2013-03-30 02:16:00,44.8,42.0,30.30,East,99,0.0,0.0,90,0.00,,,0.00,WeatherCatV1.10B1784,2013-03-30 09:16:00,
2013-03-30 02:21:00,44.3,41.6,30.31,East,98,1.0,1.0,90,0.00,,,0.00,WeatherCatV1.10B1784,2013-03-30 09:21:00,
2013-03-30 02:26:00,44.0,41.5,30.30,East,98,1.0,1.0,91,0.00,,,0.00,WeatherCatV1.10B1784,2013-03-30 09:26:00,
2013-03-30 02:31:00,43.7,41.2,30.30,East,99,0.0,1.0,91,0.00,,,0.00,WeatherCatV1.10B1784,2013-03-30 09:31:00,
2013-03-30 02:36:00,43.5,41.3,30.31,East,98,1.0,1.0,92,0.00,,,0.00,WeatherCatV1.10B1784,2013-03-30 09:36:00,
2013-03-30 02:41:00,43.2,41.0,30.31,East,98,0.0,1.0,92,0.00,,,0.00,WeatherCatV1.10B1784,2013-03-30 09:41:00,
2013-03-30 02:46:00,43.0,40.8,30.30,East,99,0.0,1.0,92,0.00,,,0.00,WeatherCatV1.10B1784,2013-03-30 09:46:00,
2013-03-30 02:51:00,43.0,41.1,30.31,East,99,0.0,1.0,93,0.00,,,0.00,WeatherCatV1.10B1784,2013-03-30 09:51:00,
2013-03-30 02:56:00,43.3,41.4,30.31,East,98,1.0,1.0,93,0.00,,,0.00,WeatherCatV1.10B1784,2013-03-30 09:56:00,
2013-03-30 03:01:00,43.1,41.2,30.31,ENE,71,1.0,2.0,93,0.00,,,0.00,WeatherCatV1.10B1784,2013-03-30 10:01:00,
2013-03-30 03:06:00,43.0,41.1,30.30,ENE,58,1.0,2.0,93,0.00,,,0.00,WeatherCatV1.10B1784,2013-03-30 10:06:00,
2013-03-30 03:11:00,43.0,41.4,30.31,ENE,58,1.0,1.0,94,0.00,,,0.00,WeatherCatV1.10B1784,2013-03-30 10:11:00,
2013-03-30 03:16:00,42.9,41.3,30.31,ENE,58,1.0,1.0,94,0.00,,,0.00,WeatherCatV1.10B1784,2013-03-30 10:16:00,
2013-03-30 03:21:00,42.8,41.2,30.31,ENE,58,1.0,1.0,94,0.00,,,0.00,WeatherCatV1.10B1784,2013-03-30 10:21:00,
2013-03-30 03:26:00,43.2,41.9,30.31,ENE,58,1.0,1.0,95,0.00,,,0.00,WeatherCatV1.10B1784,2013-03-30 10:26:00,
2013-03-30 03:31:00,43.3,41.7,30.31,ENE,58,1.0,1.0,94,0.00,,,0.00,WeatherCatV1.10B1784,2013-03-30 10:31:00,
2013-03-30 03:36:00,43.1,41.5,30.31,ENE,61,1.0,2.0,94,0.00,,,0.00,WeatherCatV1.10B1784,2013-03-30 10:36:00,
2013-03-30 03:41:00,43.1,41.5,30.31,ENE,60,1.0,1.0,94,0.00,,,0.00,WeatherCatV1.10B1784,2013-03-30 10:41:00,
2013-03-30 03:46:00,42.8,41.2,30.31,ENE,61,1.0,1.0,94,0.00,,,0.00,WeatherCatV1.10B1784,2013-03-30 10:46:00,
2013-03-30 03:51:00,42.9,41.6,30.31,NE,41,2.0,3.0,95,0.00,,,0.00,WeatherCatV1.10B1784,2013-03-30 10:51:00,
2013-03-30 03:56:00,43.1,41.8,30.31,NE,43,0.0,0.0,95,0.00,,,0.00,WeatherCatV1.10B1784,2013-03-30 10:56:00,
2013-03-30 04:01:00,43.1,41.8,30.31,NE,43,1.0,2.0,95,0.00,,,0.00,WeatherCatV1.10B1784,2013-03-30 11:01:00,
2013-03-30 04:06:00,42.9,41.3,30.30,NE,40,1.0,2.0,94,0.00,,,0.00,WeatherCatV1.10B1784,2013-03-30 11:06:00,
2013-03-30 04:11:00,42.6,41.0,30.30,NE,40,2.0,2.0,94,0.00,,,0.00,WeatherCatV1.10B1784,2013-03-30 11:11:00,
2013-03-30 04:16:00,42.5,41.2,30.30,NE,39,1.0,2.0,95,0.00,,,0.00,WeatherCatV1.10B1784,2013-03-30 11:16:00,
2013-03-30 04:21:00,42.4,41.1,30.30,NE,39,1.0,2.0,95,0.00,,,0.00,WeatherCatV1.10B1784,2013-03-30 11:21:00,
2013-03-30 04:26:00,42.2,40.9,30.30,NE,40,1.0,2.0,95,0.00,,,0.00,WeatherCatV1.10B1784,2013-03-30 11:26:00,
2013-03-30 04:31:00,42.2,40.9,30.30,NE,40,2.0,2.0,95,0.00,,,0.00,WeatherCatV1.10B1784,2013-03-30 11:31:00,
2013-03-30 04:36:00,42.2,40.9,30.30,NE,39,1.0,1.0,95,0.00,,,0.00,WeatherCatV1.10B1784,2013-03-30 11:36:00,
2013-03-30 04:41:00,42.0,40.7,30.30,NE,39,1.0,1.0,95,0.00,,,0.00,WeatherCatV1.10B1784,2013-03-30 11:41:00,
2013-03-30 04:46:00,41.9,40.8,30.30,NE,39,1.0,2.0,96,0.00,,,0.00,WeatherCatV1.10B1784,2013-03-30 11:46:00,
2013-03-30 04:51:00,41.8,40.7,30.30,NE,39,0.0,0.0,96,0.00,,,0.00,WeatherCatV1.10B1784,2013-03-30 11:51:00,
2013-03-30 04:56:00,41.6,40.3,30.30,NE,39,1.0,1.0,95,0.00,,,0.00,WeatherCatV1.10B1784,2013-03-30 11:56:00,
2013-03-30 05:01:00,41.3,40.0,30.29,NE,39,0.0,0.0,95,0.00,,,0.00,WeatherCatV1.10B1784,2013-03-30 12:01:00,
2013-03-30 05:06:00,41.1,40.0,30.29,NE,40,1.0,1.0,96,0.00,,,0.00,WeatherCatV1.10B1784,2013-03-30 12:06:00,
2013-03-30 05:11:00,41.0,39.9,30.29,NE,40,1.0,1.0,96,0.00,,,0.00,WeatherCatV1.10B1784,2013-03-30 12:11:00,
2013-03-30 05:16:00,41.2,40.1,30.29,NE,39,1.0,1.0,96,0.00,,,0.00,WeatherCatV1.10B1784,2013-03-30 12:16:00,
2013-03-30 05:21:00,41.2,40.1,30.29,NE,39,0.0,1.0,96,0.00,,,0.00,WeatherCatV1.10B1784,2013-03-30 12:21:00,
2013-03-30 05:26:00,40.9,39.8,30.29,NE,40,0.0,0.0,96,0.00,,,0.00,WeatherCatV1.10B1784,2013-03-30 12:26:00,
2013-03-30 05:31:00,40.6,39.5,30.29,NE,39,0.0,0.0,96,0.00,,,0.00,WeatherCatV1.10B1784,2013-03-30 12:31:00,
2013-03-30 05:36:00,40.2,39.2,30.29,NE,39,0.0,0.0,96,0.00,,,0.00,WeatherCatV1.10B1784,2013-03-30 12:36:00,
2013-03-30 05:41:00,40.3,39.3,30.29,NE,39,0.0,0.0,96,0.00,,,0.00,WeatherCatV1.10B1784,2013-03-30 12:41:00,
2013-03-30 05:46:00,39.9,38.9,30.29,NE,39,1.0,1.0,96,0.00,,,0.00,WeatherCatV1.10B1784,2013-03-30 12:46:00,
2013-03-30 05:51:00,39.7,38.7,30.30,NE,39,0.0,1.0,96,0.00,,,0.00,WeatherCatV1.10B1784,2013-03-30 12:51:00,
2013-03-30 05:56:00,39.7,38.9,30.30,NE,40,1.0,1.0,97,0.00,,,0.00,WeatherCatV1.10B1784,2013-03-30 12:56:00,
2013-03-30 06:01:00,39.9,39.1,30.30,NE,41,1.0,1.0,97,0.00,,,0.00,WeatherCatV1.10B1784,2013-03-30 13:01:00,
2013-03-30 06:06:00,40.0,39.2,30.30,NE,41,1.0,1.0,97,0.00,,,0.00,WeatherCatV1.10B1784,2013-03-30 13:06:00,
2013-03-30 06:11:00,40.0,39.2,30.30,NE,39,1.0,1.0,97,0.00,,,0.00,WeatherCatV1.10B1784,2013-03-30 13:11:00,
2013-03-30 06:16:00,40.2,39.4,30.30,NE,41,1.0,2.0,97,0.00,,,0.00,WeatherCatV1.10B1784,2013-03-30 13:16:00,
2013-03-30 06:21:00,40.1,39.3,30.30,NE,41,1.0,2.0,97,0.00,,,0.00,WeatherCatV1.10B1784,2013-03-30 13:21:00,
2013-03-30 06:26:00,40.1,39.3,30.30,NE,38,1.0,2.0,97,0.00,,,0.00,WeatherCatV1.10B1784,2013-03-30 13:26:00,
2013-03-30 06:31:00,40.3,39.5,30.30,NE,34,1.0,2.0,97,0.00,,,0.00,WeatherCatV1.10B1784,2013-03-30 13:31:00,
2013-03-30 06:36:00,40.4,39.6,30.30,NE,34,1.0,1.0,97,0.00,,,0.00,WeatherCatV1.10B1784,2013-03-30 13:36:00,
2013-03-30 06:41:00,40.5,39.7,30.30,NE,39,1.0,1.0,97,0.00,,,0.00,WeatherCatV1.10B1784,2013-03-30 13:41:00,
2013-03-30 06:46:00,40.2,39.2,30.30,NE,38,1.0,2.0,96,0.00,,,0.00,WeatherCatV1.10B1784,2013-03-30 13:46:00,
2013-03-30 06:51:00,39.1,38.1,30.30,NE,37,1.0,2.0,96,0.00,,,0.00,WeatherCatV1.10B1784,2013-03-30 13:51:00,
2013-03-30 06:56:00,39.2,39.2,30.30,NE,37,1.0,1.0,100,0.00,,,0.00,WeatherCatV1.10B1784,2013-03-30 13:56:00,
2013-03-30 07:01:00,39.2,39.2,30.30,NE,37,1.0,1.0,100,0.00,,,0.00,WeatherCatV1.10B1784,2013-03-30 14:01:00,
2013-03-30 07:06:00,-999.0,-99.9,30.30,North,-999,-999.0,0.0,-999,0.00,,,0.00,WeatherCatV1.10B1784,2013-03-30 14:06:00,
2013-03-30 07:11:00,-999.0,-99.9,30.30,North,-999,-999.0,0.0,-999,0.00,,,0.00,WeatherCatV1.10B1784,2013-03-30 14:11:00,
2013-03-30 07:16:00,-999.0,-99.9,30.30,North,-999,-999.0,0.0,-999,0.00,,,0.00,WeatherCatV1.10B1784,2013-03-30 14:16:00,
2013-03-30 07:21:00,-999.0,-99.9,30.30,North,-999,-999.0,0.0,-999,0.00,,,0.00,WeatherCatV1.10B1784,2013-03-30 14:21:00,
2013-03-30 07:26:00,-999.0,-99.9,30.30,North,-999,-999.0,0.0,-999,0.00,,,0.00,WeatherCatV1.10B1784,2013-03-30 14:26:00,
2013-03-30 07:31:00,-999.0,-99.9,30.30,North,-999,-999.0,0.0,-999,0.00,,,0.00,WeatherCatV1.10B1784,2013-03-30 14:31:00,
2013-03-30 07:36:00,-999.0,-99.9,30.30,North,-999,-999.0,0.0,-999,0.00,,,0.00,WeatherCatV1.10B1784,2013-03-30 14:36:00,
2013-03-30 07:41:00,-999.0,-99.9,30.30,North,-999,-999.0,0.0,-999,0.00,,,0.00,WeatherCatV1.10B1784,2013-03-30 14:41:00,
2013-03-30 07:46:00,-999.0,-99.9,30.30,North,-999,-999.0,0.0,-999,0.00,,,0.00,WeatherCatV1.10B1784,2013-03-30 14:46:00,
2013-03-30 07:51:00,42.6,41.8,30.30,NE,34,0.0,0.0,97,0.00,,,0.00,WeatherCatV1.10B1784,2013-03-30 14:51:00,
2013-03-30 07:56:00,43.0,41.9,30.30,NE,34,0.0,0.0,96,0.00,,,0.00,WeatherCatV1.10B1784,2013-03-30 14:56:00,
2013-03-30 08:01:00,44.0,42.9,30.30,NE,34,0.0,0.0,96,0.00,,,0.00,WeatherCatV1.10B1784,2013-03-30 15:01:00,
2013-03-30 08:06:00,43.8,42.5,30.30,NE,34,0.0,1.0,95,0.00,,,0.00,WeatherCatV1.10B1784,2013-03-30 15:06:00,
2013-03-30 08:11:00,43.3,42.0,30.30,West,277,2.0,2.0,95,0.00,,,0.00,WeatherCatV1.10B1784,2013-03-30 15:11:00,
2013-03-30 08:16:00,43.2,41.9,30.30,WNW,288,1.0,1.0,95,0.00,,,0.00,WeatherCatV1.10B1784,2013-03-30 15:16:00,
2013-03-30 08:21:00,43.3,42.0,30.30,WSW,250,0.0,1.0,95,0.00,,,0.00,WeatherCatV1.10B1784,2013-03-30 15:21:00,
2013-03-30 08:26:00,44.0,42.7,30.30,WSW,249,0.0,0.0,95,0.00,,,0.00,WeatherCatV1.10B1784,2013-03-30 15:26:00,
2013-03-30 08:31:00,45.1,43.8,30.30,WSW,250,0.0,0.0,95,0.00,,,0.00,WeatherCatV1.10B1784,2013-03-30 15:31:00,
2013-03-30 08:36:00,45.5,43.9,30.30,SSE,162,1.0,1.0,94,0.00,,,0.00,WeatherCatV1.10B1784,2013-03-30 15:36:00,
2013-03-30 08:41:00,46.2,44.3,30.30,SSW,212,0.0,0.0,93,0.00,,,0.00,WeatherCatV1.10B1784,2013-03-30 15:41:00,
2013-03-30 08:46:00,45.8,43.3,30.30,WNW,289,1.0,2.0,91,0.00,,,0.00,WeatherCatV1.10B1784,2013-03-30 15:46:00,
2013-03-30 08:51:00,45.5,43.0,30.30,WNW,288,1.0,1.0,91,0.00,,,0.00,WeatherCatV1.10B1784,2013-03-30 15:51:00,
2013-03-30 08:56:00,45.5,43.0,30.30,West,280,1.0,2.0,91,0.00,,,0.00,WeatherCatV1.10B1784,2013-03-30 15:56:00,
2013-03-30 09:01:00,46.1,43.9,30.29,West,280,0.0,0.0,92,0.00,,,0.00,WeatherCatV1.10B1784,2013-03-30 16:01:00,
2013-03-30 09:06:00,46.9,44.1,30.29,SW,229,0.0,2.0,90,0.00,,,0.00,WeatherCatV1.10B1784,2013-03-30 16:06:00,
2013-03-30 09:11:00,47.2,44.4,30.29,WNW,293,0.0,0.0,90,0.00,,,0.00,WeatherCatV1.10B1784,2013-03-30 16:11:00,
2013-03-30 09:16:00,47.5,44.4,30.29,West,281,0.0,2.0,89,0.00,,,0.00,WeatherCatV1.10B1784,2013-03-30 16:16:00,
2013-03-30 09:21:00,48.0,44.6,30.29,West,274,2.0,3.0,88,0.00,,,0.00,WeatherCatV1.10B1784,2013-03-30 16:21:00,
2013-03-30 09:26:00,48.6,44.3,30.29,WNW,291,1.0,3.0,85,0.00,,,0.00,WeatherCatV1.10B1784,2013-03-30 16:26:00,
2013-03-30 09:31:00,49.1,44.8,30.29,NW,326,4.0,4.0,85,0.00,,,0.00,WeatherCatV1.10B1784,2013-03-30 16:31:00,
2013-03-30 09:36:00,50.0,45.7,30.29,WNW,288,1.0,1.0,85,0.00,,,0.00,WeatherCatV1.10B1784,2013-03-30 16:36:00,
2013-03-30 09:41:00,50.4,45.1,30.28,SSW,205,3.0,4.0,82,0.00,,,0.00,WeatherCatV1.10B1784,2013-03-30 16:41:00,
2013-03-30 09:46:00,51.2,45.9,30.28,West,260,1.0,4.0,82,0.00,,,0.00,WeatherCatV1.10B1784,2013-03-30 16:46:00,
2013-03-30 09:51:00,51.6,46.3,30.28,SW,235,0.0,2.0,82,0.00,,,0.00,WeatherCatV1.10B1784,2013-03-30 16:51:00,
2013-03-30 09:56:00,52.1,46.4,30.28,SW,221,0.0,2.0,81,0.00,,,0.00,WeatherCatV1.10B1784,2013-03-30 16:56:00,
2013-03-30 10:01:00,53.2,45.5,30.28,WNW,301,3.0,5.0,75,0.00,,,0.00,WeatherCatV1.10B1784,2013-03-30 17:01:00,
2013-03-30 10:06:00,54.4,46.6,30.28,West,262,3.0,3.0,75,0.00,,,0.00,WeatherCatV1.10B1784,2013-03-30 17:06:00,
2013-03-30 10:11:00,55.0,45.8,30.28,West,267,1.0,3.0,71,0.00,,,0.00,WeatherCatV1.10B1784,2013-03-30 17:11:00,
2013-03-30 10:16:00,55.6,45.6,30.28,North,0,4.0,5.0,69,0.00,,,0.00,WeatherCatV1.10B1784,2013-03-30 17:16:00,
2013-03-30 10:21:00,56.1,44.9,30.28,NW,310,0.0,3.0,66,0.00,,,0.00,WeatherCatV1.10B1784,2013-03-30 17:21:00,
2013-03-30 10:26:00,56.4,44.4,30.27,NW,310,7.0,8.0,64,0.00,,,0.00,WeatherCatV1.10B1784,2013-03-30 17:26:00,
2013-03-30 10:31:00,56.5,44.1,30.28,North,11,3.0,10.0,63,0.00,,,0.00,WeatherCatV1.10B1784,2013-03-30 17:31:00,
2013-03-30 10:36:00,56.7,44.2,30.27,North,358,9.0,9.0,63,0.00,,,0.00,WeatherCatV1.10B1784,2013-03-30 17:36:00,
2013-03-30 10:41:00,56.9,44.4,30.28,NW,315,6.0,6.0,63,0.00,,,0.00,WeatherCatV1.10B1784,2013-03-30 17:41:00,
2013-03-30 10:46:00,57.1,44.2,30.27,NE,47,2.0,4.0,62,0.00,,,0.00,WeatherCatV1.10B1784,2013-03-30 17:46:00,
2013-03-30 10:51:00,57.3,44.0,30.27,North,356,5.0,10.0,61,0.00,,,0.00,WeatherCatV1.10B1784,2013-03-30 17:51:00,
2013-03-30 10:56:00,57.4,44.1,30.27,East,82,7.0,12.0,61,0.00,,,0.00,WeatherCatV1.10B1784,2013-03-30 17:56:00,
2013-03-30 11:01:00,57.4,43.6,30.27,WNW,285,6.0,9.0,60,0.00,,,0.00,WeatherCatV1.10B1784,2013-03-30 18:01:00,
2013-03-30 11:06:00,57.3,44.0,30.27,West,274,4.0,6.0,61,0.00,,,0.00,WeatherCatV1.10B1784,2013-03-30 18:06:00,
2013-03-30 11:11:00,57.1,43.8,30.27,WNW,294,5.0,9.0,61,0.00,,,0.00,WeatherCatV1.10B1784,2013-03-30 18:11:00,
2013-03-30 11:16:00,57.3,44.0,30.27,North,354,2.0,10.0,61,0.00,,,0.00,WeatherCatV1.10B1784,2013-03-30 18:16:00,
2013-03-30 11:21:00,57.8,44.0,30.27,North,357,8.0,10.0,60,0.00,,,0.00,WeatherCatV1.10B1784,2013-03-30 18:21:00,
2013-03-30 11:26:00,57.9,44.5,30.27,NW,316,4.0,10.0,61,0.00,,,0.00,WeatherCatV1.10B1784,2013-03-30 18:26:00,
2013-03-30 11:31:00,58.6,44.8,30.27,NE,46,11.0,11.0,60,0.00,,,0.00,WeatherCatV1.10B1784,2013-03-30 18:31:00,
2013-03-30 11:36:00,58.6,45.2,30.27,NE,36,3.0,5.0,61,0.00,,,0.00,WeatherCatV1.10B1784,2013-03-30 18:36:00,
2013-03-30 11:41:00,58.9,44.1,30.27,North,356,2.0,12.0,58,0.00,,,0.00,WeatherCatV1.10B1784,2013-03-30 18:41:00,
2013-03-30 11:46:00,59.1,44.3,30.27,NNW,330,5.0,10.0,58,0.00,,,0.00,WeatherCatV1.10B1784,2013-03-30 18:46:00,
2013-03-30 11:51:00,58.7,44.0,30.27,West,276,8.0,9.0,58,0.00,,,0.00,WeatherCatV1.10B1784,2013-03-30 18:51:00,
2013-03-30 11:56:00,58.7,44.4,30.27,NW,308,7.0,12.0,59,0.00,,,0.00,WeatherCatV1.10B1784,2013-03-30 18:56:00,
2013-03-30 12:01:00,59.0,44.2,30.26,NNW,345,5.0,14.0,58,0.00,,,0.00,WeatherCatV1.10B1784,2013-03-30 19:01:00,
2013-03-30 12:06:00,59.4,45.1,30.26,NNW,330,6.0,6.0,59,0.00,,,0.00,WeatherCatV1.10B1784,2013-03-30 19:06:00,
2013-03-30 12:11:00,59.7,44.4,30.26,NNW,335,2.0,9.0,57,0.00,,,0.00,WeatherCatV1.10B1784,2013-03-30 19:11:00,
2013-03-30 12:16:00,59.7,44.4,30.26,North,351,2.0,8.0,57,0.00,,,0.00,WeatherCatV1.10B1784,2013-03-30 19:16:00,
2013-03-30 12:21:00,60.0,44.7,30.26,NNE,13,8.0,10.0,57,0.00,,,0.00,WeatherCatV1.10B1784,2013-03-30 19:21:00,
2013-03-30 12:26:00,60.3,44.1,30.26,West,274,3.0,14.0,55,0.00,,,0.00,WeatherCatV1.10B1784,2013-03-30 19:26:00,
2013-03-30 12:31:00,60.4,44.6,30.25,NW,322,11.0,12.0,56,0.00,,,0.00,WeatherCatV1.10B1784,2013-03-30 19:31:00,
2013-03-30 12:36:00,60.7,44.4,30.25,NNW,330,4.0,9.0,55,0.00,,,0.00,WeatherCatV1.10B1784,2013-03-30 19:36:00,
2013-03-30 12:41:00,60.6,44.3,30.25,WNW,298,7.0,10.0,55,0.00,,,0.00,WeatherCatV1.10B1784,2013-03-30 19:41:00,
2013-03-30 12:46:00,61.1,44.8,30.25,NW,308,6.0,8.0,55,0.00,,,0.00,WeatherCatV1.10B1784,2013-03-30 19:46:00,
2013-03-30 12:51:00,61.5,44.2,30.25,WNW,287,4.0,14.0,53,0.00,,,0.00,WeatherCatV1.10B1784,2013-03-30 19:51:00,
2013-03-30 12:56:00,61.4,44.6,30.25,North,11,8.0,11.0,54,0.00,,,0.00,WeatherCatV1.10B1784,2013-03-30 19:56:00,
2013-03-30 13:01:00,61.8,44.0,30.25,NW,314,9.0,14.0,52,0.00,,,0.00,WeatherCatV1.10B1784,2013-03-30 20:01:00,
2013-03-30 13:06:00,61.8,44.0,30.24,NW,310,5.0,10.0,52,0.00,,,0.00,WeatherCatV1.10B1784,2013-03-30 20:06:00,
2013-03-30 13:11:00,62.1,43.8,30.24,WNW,291,11.0,12.0,51,0.00,,,0.00,WeatherCatV1.10B1784,2013-03-30 20:11:00,
2013-03-30 13:16:00,62.1,43.2,30.24,NNW,335,5.0,12.0,50,0.00,,,0.00,WeatherCatV1.10B1784,2013-03-30 20:16:00,
2013-03-30 13:21:00,62.1,43.2,30.24,NNE,26,4.0,10.0,50,0.00,,,0.00,WeatherCatV1.10B1784,2013-03-30 20:21:00,
2013-03-30 13:26:00,62.5,43.1,30.24,WNW,291,11.0,12.0,49,0.00,,,0.00,WeatherCatV1.10B1784,2013-03-30 20:26:00,
2013-03-30 13:31:00,62.7,43.8,30.24,WNW,298,5.0,8.0,50,0.00,,,0.00,WeatherCatV1.10B1784,2013-03-30 20:31:00,
2013-03-30 13:36:00,63.1,43.6,30.24,WNW,288,7.0,13.0,49,0.00,,,0.00,WeatherCatV1.10B1784,2013-03-30 20:36:00,
2013-03-30 13:41:00,63.6,44.6,30.23,NNW,328,3.0,11.0,50,0.00,,,0.00,WeatherCatV1.10B1784,2013-03-30 20:41:00,
2013-03-30 13:46:00,64.1,44.0,30.23,NNW,344,1.0,8.0,48,0.00,,,0.00,WeatherCatV1.10B1784,2013-03-30 20:46:00,
2013-03-30 13:51:00,64.5,44.4,30.23,NNE,25,4.0,8.0,48,0.00,,,0.00,WeatherCatV1.10B1784,2013-03-30 20:51:00,
2013-03-30 13:56:00,64.5,44.4,30.23,North,359,5.0,12.0,48,0.00,,,0.00,WeatherCatV1.10B1784,2013-03-30 20:56:00,
2013-03-30 14:01:00,64.9,44.2,30.23,WNW,298,3.0,11.0,47,0.00,,,0.00,WeatherCatV1.10B1784,2013-03-30 21:01:00,
2013-03-30 14:06:00,64.3,43.6,30.23,NNE,15,6.0,8.0,47,0.00,,,0.00,WeatherCatV1.10B1784,2013-03-30 21:06:00,
2013-03-30 14:11:00,65.0,43.7,30.22,NW,305,8.0,11.0,46,0.00,,,0.00,WeatherCatV1.10B1784,2013-03-30 21:11:00,
2013-03-30 14:16:00,64.9,44.2,30.22,NE,41,7.0,9.0,47,0.00,,,0.00,WeatherCatV1.10B1784,2013-03-30 21:16:00,
2013-03-30 14:21:00,65.0,44.3,30.22,NW,305,5.0,8.0,47,0.00,,,0.00,WeatherCatV1.10B1784,2013-03-30 21:21:00,
2013-03-30 14:26:00,65.1,43.8,30.22,NW,304,7.0,12.0,46,0.00,,,0.00,WeatherCatV1.10B1784,2013-03-30 21:26:00,
2013-03-30 14:31:00,65.4,44.1,30.22,WNW,288,8.0,12.0,46,0.00,,,0.00,WeatherCatV1.10B1784,2013-03-30 21:31:00,
2013-03-30 14:36:00,65.4,44.6,30.21,NW,304,4.0,6.0,47,0.00,,,0.00,WeatherCatV1.10B1784,2013-03-30 21:36:00,
2013-03-30 14:41:00,66.6,44.6,30.21,NW,325,2.0,9.0,45,0.00,,,0.00,WeatherCatV1.10B1784,2013-03-30 21:41:00,
2013-03-30 14:46:00,66.6,44.6,30.21,NNW,346,8.0,10.0,45,0.00,,,0.00,WeatherCatV1.10B1784,2013-03-30 21:46:00,
2013-03-30 14:51:00,66.5,44.5,30.21,West,280,4.0,9.0,45,0.00,,,0.00,WeatherCatV1.10B1784,2013-03-30 21:51:00,
2013-03-30 14:56:00,66.3,43.7,30.20,NW,319,2.0,10.0,44,0.00,,,0.00,WeatherCatV1.10B1784,2013-03-30 21:56:00,
2013-03-30 15:01:00,66.4,44.4,30.20,NW,305,5.0,9.0,45,0.00,,,0.00,WeatherCatV1.10B1784,2013-03-30 22:01:00,
2013-03-30 15:06:00,66.5,43.9,30.20,NW,311,4.0,10.0,44,0.00,,,0.00,WeatherCatV1.10B1784,2013-03-30 22:06:00,
2013-03-30 15:11:00,66.8,44.2,30.20,NW,319,2.0,10.0,44,0.00,,,0.00,WeatherCatV1.10B1784,2013-03-30 22:11:00,
2013-03-30 15:16:00,66.8,43.6,30.20,NW,326,5.0,10.0,43,0.00,,,0.00,WeatherCatV1.10B1784,2013-03-30 22:16:00,
2013-03-30 15:21:00,67.3,44.6,30.19,NNW,337,7.0,8.0,44,0.00,,,0.00,WeatherCatV1.10B1784,2013-03-30 22:21:00,
2013-03-30 15:26:00,67.2,44.5,30.19,NW,312,1.0,11.0,44,0.00,,,0.00,WeatherCatV1.10B1784,2013-03-30 22:26:00,
2013-03-30 15:31:00,67.3,44.0,30.19,NW,305,6.0,11.0,43,0.00,,,0.00,WeatherCatV1.10B1784,2013-03-30 22:31:00,
2013-03-30 15:36:00,67.6,45.5,30.19,NW,325,5.0,13.0,45,0.00,,,0.00,WeatherCatV1.10B1784,2013-03-30 22:36:00,
2013-03-30 15:41:00,67.7,45.0,30.18,WNW,295,9.0,9.0,44,0.00,,,0.00,WeatherCatV1.10B1784,2013-03-30 22:41:00,
2013-03-30 15:46:00,67.6,44.3,30.18,WNW,293,5.0,10.0,43,0.00,,,0.00,WeatherCatV1.10B1784,2013-03-30 22:46:00,
2013-03-30 15:51:00,67.8,45.7,30.18,WNW,302,3.0,7.0,45,0.00,,,0.00,WeatherCatV1.10B1784,2013-03-30 22:51:00,
2013-03-30 15:56:00,67.7,45.0,30.18,NW,305,3.0,10.0,44,0.00,,,0.00,WeatherCatV1.10B1784,2013-03-30 22:56:00,
2013-03-30 16:01:00,68.2,46.0,30.18,NNW,345,7.0,11.0,45,0.00,,,0.00,WeatherCatV1.10B1784,2013-03-30 23:01:00,
2013-03-30 16:06:00,68.2,46.6,30.17,WNW,300,7.0,11.0,46,0.00,,,0.00,WeatherCatV1.10B1784,2013-03-30 23:06:00,
2013-03-30 16:11:00,67.6,46.6,30.17,NW,308,4.0,8.0,47,0.00,,,0.00,WeatherCatV1.10B1784,2013-03-30 23:11:00,
2013-03-30 16:16:00,67.3,46.9,30.17,West,272,8.0,12.0,48,0.00,,,0.00,WeatherCatV1.10B1784,2013-03-30 23:16:00,
2013-03-30 16:21:00,67.1,47.3,30.17,NNW,334,5.0,7.0,49,0.00,,,0.00,WeatherCatV1.10B1784,2013-03-30 23:21:00,
2013-03-30 16:26:00,67.2,46.8,30.17,NW,308,5.0,7.0,48,0.00,,,0.00,WeatherCatV1.10B1784,2013-03-30 23:26:00,
2013-03-30 16:31:00,67.6,47.2,30.17,WNW,301,6.0,9.0,48,0.00,,,0.00,WeatherCatV1.10B1784,2013-03-30 23:31:00,
2013-03-30 16:36:00,67.7,46.7,30.17,WNW,292,8.0,11.0,47,0.00,,,0.00,WeatherCatV1.10B1784,2013-03-30 23:36:00,
2013-03-30 16:41:00,67.3,46.4,30.16,NW,305,6.0,10.0,47,0.00,,,0.00,WeatherCatV1.10B1784,2013-03-30 23:41:00,
2013-03-30 16:46:00,67.9,48.0,30.16,WNW,302,4.0,9.0,49,0.00,,,0.00,WeatherCatV1.10B1784,2013-03-30 23:46:00,
2013-03-30 16:51:00,68.2,47.2,30.16,WNW,295,9.0,9.0,47,0.00,,,0.00,WeatherCatV1.10B1784,2013-03-30 23:51:00,
2013-03-30 16:56:00,68.1,46.5,30.16,West,281,8.0,10.0,46,0.00,,,0.00,WeatherCatV1.10B1784,2013-03-30 23:56:00,
2013-03-30 17:01:00,67.7,46.7,30.16,WNW,298,8.0,10.0,47,0.00,,,0.00,WeatherCatV1.10B1784,2013-03-31 00:01:00,
2013-03-30 17:06:00,67.5,46.6,30.16,NW,313,6.0,9.0,47,0.00,,,0.00,WeatherCatV1.10B1784,2013-03-31 00:06:00,
2013-03-30 17:11:00,67.2,46.3,30.16,NW,319,6.0,10.0,47,0.00,,,0.00,WeatherCatV1.10B1784,2013-03-31 00:11:00,
2013-03-30 17:16:00,67.9,46.3,30.16,NNW,335,6.0,9.0,46,0.00,,,0.00,WeatherCatV1.10B1784,2013-03-31 00:16:00,
2013-03-30 17:21:00,67.2,46.8,30.16,NNW,340,4.0,7.0,48,0.00,,,0.00,WeatherCatV1.10B1784,2013-03-31 00:21:00,
2013-03-30 17:26:00,67.0,46.7,30.15,NW,319,7.0,10.0,48,0.00,,,0.00,WeatherCatV1.10B1784,2013-03-31 00:26:00,
2013-03-30 17:31:00,66.9,46.6,30.15,West,278,4.0,13.0,48,0.00,,,0.00,WeatherCatV1.10B1784,2013-03-31 00:31:00,
2013-03-30 17:36:00,67.0,47.2,30.15,NW,307,5.0,7.0,49,0.00,,,0.00,WeatherCatV1.10B1784,2013-03-31 00:36:00,
2013-03-30 17:41:00,67.2,46.8,30.15,WNW,290,4.0,7.0,48,0.00,,,0.00,WeatherCatV1.10B1784,2013-03-31 00:41:00,
2013-03-30 17:46:00,67.6,46.6,30.15,WNW,291,7.0,9.0,47,0.00,,,0.00,WeatherCatV1.10B1784,2013-03-31 00:46:00,
2013-03-30 17:51:00,66.9,46.6,30.15,North,350,7.0,9.0,48,0.00,,,0.00,WeatherCatV1.10B1784,2013-03-31 00:51:00,
2013-03-30 17:56:00,66.5,46.7,30.15,WNW,290,4.0,7.0,49,0.00,,,0.00,WeatherCatV1.10B1784,2013-03-31 00:56:00,
2013-03-30 18:01:00,66.4,46.7,30.14,WNW,301,4.0,7.0,49,0.00,,,0.00,WeatherCatV1.10B1784,2013-03-31 01:01:00,
2013-03-30 18:06:00,66.5,46.7,30.14,WSW,256,4.0,5.0,49,0.00,,,0.00,WeatherCatV1.10B1784,2013-03-31 01:06:00,
2013-03-30 18:11:00,66.2,46.5,30.14,WNW,300,5.0,11.0,49,0.00,,,0.00,WeatherCatV1.10B1784,2013-03-31 01:11:00,
2013-03-30 18:16:00,66.3,46.6,30.14,NW,305,2.0,4.0,49,0.00,,,0.00,WeatherCatV1.10B1784,2013-03-31 01:16:00,
2013-03-30 18:21:00,66.7,46.9,30.14,WNW,283,2.0,3.0,49,0.00,,,0.00,WeatherCatV1.10B1784,2013-03-31 01:21:00,
2013-03-30 18:26:00,66.2,46.5,30.14,SW,233,5.0,6.0,49,0.00,,,0.00,WeatherCatV1.10B1784,2013-03-31 01:26:00,
2013-03-30 18:31:00,65.7,46.5,30.14,NW,310,4.0,5.0,50,0.00,,,0.00,WeatherCatV1.10B1784,2013-03-31 01:31:00,
2013-03-30 18:36:00,65.2,46.6,30.14,WNW,297,2.0,4.0,51,0.00,,,0.00,WeatherCatV1.10B1784,2013-03-31 01:36:00,
2013-03-30 18:41:00,64.8,46.2,30.14,NNW,330,2.0,7.0,51,0.00,,,0.00,WeatherCatV1.10B1784,2013-03-31 01:41:00,
2013-03-30 18:46:00,64.2,46.7,30.14,WSW,245,3.0,4.0,53,0.00,,,0.00,WeatherCatV1.10B1784,2013-03-31 01:46:00,
2013-03-30 18:51:00,63.7,46.7,30.13,WNW,291,3.0,7.0,54,0.00,,,0.00,WeatherCatV1.10B1784,2013-03-31 01:51:00,
2013-03-30 18:56:00,63.3,46.9,30.14,WNW,285,3.0,4.0,55,0.00,,,0.00,WeatherCatV1.10B1784,2013-03-31 01:56:00,
2013-03-30 19:01:00,63.1,47.1,30.13,NNE,13,2.0,4.0,56,0.00,,,0.00,WeatherCatV1.10B1784,2013-03-31 02:01:00,
2013-03-30 19:06:00,62.7,46.8,30.13,NW,316,4.0,5.0,56,0.00,,,0.00,WeatherCatV1.10B1784,2013-03-31 02:06:00,
2013-03-30 19:11:00,62.2,46.8,30.13,NNW,347,3.0,6.0,57,0.00,,,0.00,WeatherCatV1.10B1784,2013-03-31 02:11:00,
2013-03-30 19:16:00,61.8,46.9,30.13,WNW,285,2.0,5.0,58,0.00,,,0.00,WeatherCatV1.10B1784,2013-03-31 02:16:00,
2013-03-30 19:21:00,61.4,46.9,30.13,NW,308,5.0,5.0,59,0.00,,,0.00,WeatherCatV1.10B1784,2013-03-31 02:21:00,
2013-03-30 19:26:00,60.9,46.9,30.13,NW,304,3.0,5.0,60,0.00,,,0.00,WeatherCatV1.10B1784,2013-03-31 02:26:00,
2013-03-30 19:31:00,60.4,46.9,30.13,NW,322,4.0,5.0,61,0.00,,,0.00,WeatherCatV1.10B1784,2013-03-31 02:31:00,
2013-03-30 19:36:00,59.9,46.4,30.13,WNW,295,4.0,8.0,61,0.00,,,0.00,WeatherCatV1.10B1784,2013-03-31 02:36:00,
2013-03-30 19:41:00,59.5,46.5,30.13,West,259,4.0,5.0,62,0.00,,,0.00,WeatherCatV1.10B1784,2013-03-31 02:41:00,
2013-03-30 19:46:00,59.1,46.5,30.13,NNW,346,3.0,4.0,63,0.00,,,0.00,WeatherCatV1.10B1784,2013-03-31 02:46:00,
2013-03-30 19:51:00,58.8,46.2,30.13,NW,304,2.0,5.0,63,0.00,,,0.00,WeatherCatV1.10B1784,2013-03-31 02:51:00,
2013-03-30 19:56:00,58.5,46.4,30.13,West,281,3.0,5.0,64,0.00,,,0.00,WeatherCatV1.10B1784,2013-03-31 02:56:00,
2013-03-30 20:01:00,58.1,46.4,30.13,NW,304,2.0,4.0,65,0.00,,,0.00,WeatherCatV1.10B1784,2013-03-31 03:01:00,
2013-03-30 20:06:00,57.8,46.1,30.13,West,263,4.0,6.0,65,0.00,,,0.00,WeatherCatV1.10B1784,2013-03-31 03:06:00,
2013-03-30 20:11:00,57.4,46.1,30.13,WNW,283,2.0,4.0,66,0.00,,,0.00,WeatherCatV1.10B1784,2013-03-31 03:11:00,
2013-03-30 20:16:00,57.3,46.0,30.14,WNW,288,6.0,6.0,66,0.00,,,0.00,WeatherCatV1.10B1784,2013-03-31 03:16:00,
2013-03-30 20:21:00,57.0,46.2,30.13,WNW,290,2.0,3.0,67,0.00,,,0.00,WeatherCatV1.10B1784,2013-03-31 03:21:00,
2013-03-30 20:26:00,56.8,46.4,30.13,NW,308,3.0,6.0,68,0.00,,,0.00,WeatherCatV1.10B1784,2013-03-31 03:26:00,
2013-03-30 20:31:00,56.6,46.2,30.14,NNW,329,3.0,5.0,68,0.00,,,0.00,WeatherCatV1.10B1784,2013-03-31 03:31:00,
2013-03-30 20:36:00,56.5,46.5,30.14,WNW,287,3.0,5.0,69,0.00,,,0.00,WeatherCatV1.10B1784,2013-03-31 03:36:00,
2013-03-30 20:41:00,56.3,46.3,30.14,WNW,298,3.0,3.0,69,0.00,,,0.00,WeatherCatV1.10B1784,2013-03-31 03:41:00,
2013-03-30 20:46:00,56.2,46.2,30.14,WNW,298,4.0,6.0,69,0.00,,,0.00,WeatherCatV1.10B1784,2013-03-31 03:46:00,
2013-03-30 20:51:00,56.1,46.5,30.14,NW,314,2.0,3.0,70,0.00,,,0.00,WeatherCatV1.10B1784,2013-03-31 03:51:00,
2013-03-30 20:56:00,55.8,46.2,30.14,NW,316,3.0,4.0,70,0.00,,,0.00,WeatherCatV1.10B1784,2013-03-31 03:56:00,
2013-03-30 21:00:00,55.8,46.2,30.14,WNW,288,3.0,4.0,70,0.00,,,0.00,WeatherCatV1.10B1784,2013-03-31 04:00:00,
2013-03-30 21:01:00,55.7,46.1,30.14,NW,325,1.0,4.0,70,0.00,,,0.00,WeatherCatV1.10B1784,2013-03-31 04:01:00,
2013-03-30 21:06:00,55.7,46.4,30.14,NNE,22,2.0,2.0,71,0.00,,,0.00,WeatherCatV1.10B1784,2013-03-31 04:06:00,
2013-03-30 21:11:00,55.6,46.3,30.14,NNE,13,3.0,3.0,71,0.00,,,0.00,WeatherCatV1.10B1784,2013-03-31 04:11:00,
2013-03-30 21:16:00,55.5,46.2,30.14,WSW,257,2.0,4.0,71,0.00,,,0.00,WeatherCatV1.10B1784,2013-03-31 04:16:00,
2013-03-30 21:21:00,55.1,46.2,30.14,NNE,15,1.0,1.0,72,0.00,,,0.00,WeatherCatV1.10B1784,2013-03-31 04:21:00,
2013-03-30 21:26:00,54.8,45.9,30.13,NW,308,2.0,2.0,72,0.00,,,0.00,WeatherCatV1.10B1784,2013-03-31 04:26:00,
2013-03-30 21:31:00,54.7,46.2,30.13,NNE,30,1.0,2.0,73,0.00,,,0.00,WeatherCatV1.10B1784,2013-03-31 04:31:00,
2013-03-30 21:36:00,54.6,46.1,30.14,West,280,1.0,2.0,73,0.00,,,0.00,WeatherCatV1.10B1784,2013-03-31 04:36:00,
2013-03-30 21:41:00,54.5,46.0,30.14,WNW,301,1.0,1.0,73,0.00,,,0.00,WeatherCatV1.10B1784,2013-03-31 04:41:00,
2013-03-30 21:46:00,54.2,46.1,30.14,NW,318,0.0,1.0,74,0.00,,,0.00,WeatherCatV1.10B1784,2013-03-31 04:46:00,
2013-03-30 21:51:00,54.0,45.9,30.14,NW,307,2.0,2.0,74,0.00,,,0.00,WeatherCatV1.10B1784,2013-03-31 04:51:00,
2013-03-30 21:56:00,54.2,46.1,30.14,NW,318,0.0,1.0,74,0.00,,,0.00,WeatherCatV1.10B1784,2013-03-31 04:56:00,
2013-03-30 22:01:00,53.9,45.8,30.14,NW,318,0.0,0.0,74,0.00,,,0.00,WeatherCatV1.10B1784,2013-03-31 05:01:00,
2013-03-30 22:06:00,53.9,46.2,30.14,North,9,2.0,2.0,75,0.00,,,0.00,WeatherCatV1.10B1784,2013-03-31 05:06:00,
2013-03-30 22:11:00,53.7,46.0,30.13,NNE,19,1.0,2.0,75,0.00,,,0.00,WeatherCatV1.10B1784,2013-03-31 05:11:00,
2013-03-30 22:16:00,53.7,46.0,30.14,NNE,27,1.0,2.0,75,0.00,,,0.00,WeatherCatV1.10B1784,2013-03-31 05:16:00,
2013-03-30 22:21:00,53.7,46.0,30.14,NNW,327,1.0,3.0,75,0.00,,,0.00,WeatherCatV1.10B1784,2013-03-31 05:21:00,
2013-03-30 22:26:00,53.6,45.9,30.13,NNW,331,3.0,3.0,75,0.00,,,0.00,WeatherCatV1.10B1784,2013-03-31 05:26:00,
2013-03-30 22:31:00,53.6,45.9,30.13,NNW,339,1.0,2.0,75,0.00,,,0.00,WeatherCatV1.10B1784,2013-03-31 05:31:00,
2013-03-30 22:36:00,53.4,45.7,30.13,North,11,2.0,2.0,75,0.00,,,0.00,WeatherCatV1.10B1784,2013-03-31 05:36:00,
2013-03-30 22:41:00,53.2,45.5,30.13,NE,34,1.0,5.0,75,0.00,,,0.00,WeatherCatV1.10B1784,2013-03-31 05:41:00,
2013-03-30 22:46:00,53.0,45.6,30.13,North,354,1.0,4.0,76,0.00,,,0.00,WeatherCatV1.10B1784,2013-03-31 05:46:00,
2013-03-30 22:51:00,52.9,45.5,30.13,NNE,16,1.0,3.0,76,0.00,,,0.00,WeatherCatV1.10B1784,2013-03-31 05:51:00,
2013-03-30 22:56:00,52.7,45.3,30.13,NNE,20,0.0,1.0,76,0.00,,,0.00,WeatherCatV1.10B1784,2013-03-31 05:56:00,
2013-03-30 23:01:00,52.5,45.2,30.13,North,9,0.0,3.0,76,0.00,,,0.00,WeatherCatV1.10B1784,2013-03-31 06:01:00,
2013-03-30 23:06:00,52.4,45.1,30.13,NNW,342,0.0,1.0,76,0.00,,,0.00,WeatherCatV1.10B1784,2013-03-31 06:06:00,
2013-03-30 23:11:00,52.2,44.9,30.12,NNW,338,1.0,2.0,76,0.00,,,0.00,WeatherCatV1.10B1784,2013-03-31 06:11:00,
2013-03-30 23:16:00,52.2,44.9,30.12,NE,40,2.0,3.0,76,0.00,,,0.00,WeatherCatV1.10B1784,2013-03-31 06:16:00,
2013-03-30 23:21:00,52.1,44.8,30.12,NE,47,1.0,4.0,76,0.00,,,0.00,WeatherCatV1.10B1784,2013-03-31 06:21:00,
2013-03-30 23:26:00,52.0,44.7,30.12,NNE,22,1.0,2.0,76,0.00,,,0.00,WeatherCatV1.10B1784,2013-03-31 06:26:00,
2013-03-30 23:31:00,51.8,44.5,30.12,NNE,26,2.0,2.0,76,0.00,,,0.00,WeatherCatV1.10B1784,2013-03-31 06:31:00,
2013-03-30 23:36:00,51.4,44.4,30.12,NE,43,0.0,2.0,77,0.00,,,0.00,WeatherCatV1.10B1784,2013-03-31 06:36:00,
2013-03-30 23:41:00,51.1,44.5,30.12,North,351,0.0,1.0,78,0.00,,,0.00,WeatherCatV1.10B1784,2013-03-31 06:41:00,
2013-03-30 23:46:00,51.0,44.4,30.12,NNE,32,1.0,1.0,78,0.00,,,0.00,WeatherCatV1.10B1784,2013-03-31 06:46:00,
2013-03-30 23:51:00,50.9,44.3,30.12,NNE,30,0.0,1.0,78,0.00,,,0.00,WeatherCatV1.10B1784,2013-03-31 06:51:00,
2013-03-30 23:56:00,50.8,44.2,30.12,NNE,30,1.0,1.0,78,0.00,,,0.00,WeatherCatV1.10B1784,2013-03-31 06:56:00,